createdAt,value
2018-04-30T00:02:24.211Z,25.77
2018-04-30T00:04:52.707Z,25.27
2018-04-30T00:07:20.986Z,27.40
2018-04-30T00:09:49.269Z,28.50
2018-04-30T00:12:17.578Z,25.77
2018-04-30T00:14:46.605Z,26.57
2018-04-30T00:17:14.948Z,26.90
2018-04-30T00:19:43.982Z,25.97
2018-04-30T00:22:12.324Z,27.20
2018-04-30T00:24:40.647Z,29.90
2018-04-30T00:27:09.907Z,26.20
2018-04-30T00:29:38.189Z,25.80
2018-04-30T00:32:06.458Z,27.63
2018-04-30T00:34:34.757Z,24.77
2018-04-30T00:37:03.024Z,25.80
2018-04-30T00:39:31.322Z,24.10
2018-04-30T00:41:59.601Z,27.70
2018-04-30T00:44:27.910Z,21.50
2018-04-30T00:46:56.182Z,22.60
2018-04-30T00:49:24.521Z,23.37
2018-04-30T00:51:52.775Z,22.20
2018-04-30T00:54:32.790Z,23.57
2018-04-30T00:57:01.058Z,22.70
2018-04-30T00:59:30.222Z,23.30
2018-04-30T01:01:58.551Z,23.30
2018-04-30T01:04:26.812Z,24.50
2018-04-30T01:06:55.998Z,23.40
2018-04-30T01:09:24.313Z,23.83
2018-04-30T01:11:52.636Z,24.50
2018-04-30T01:14:20.925Z,24.67
2018-04-30T01:16:49.234Z,26.67
2018-04-30T01:19:18.611Z,25.47
2018-04-30T01:21:46.907Z,23.60
2018-04-30T01:24:15.182Z,24.63
2018-04-30T01:26:43.466Z,27.47
2018-04-30T01:29:11.773Z,24.47
2018-04-30T01:31:40.838Z,22.33
2018-04-30T01:34:09.149Z,24.93
2018-04-30T01:36:37.474Z,25.30
2018-04-30T01:39:05.767Z,23.30
2018-04-30T01:41:34.058Z,24.67
2018-04-30T01:44:02.383Z,26.07
2018-04-30T01:46:30.666Z,23.60
2018-04-30T01:48:58.974Z,23.10
2018-04-30T01:51:27.238Z,20.63
2018-04-30T01:53:55.564Z,20.00
2018-04-30T01:56:23.869Z,20.93
2018-04-30T01:58:52.894Z,22.13
2018-04-30T02:01:21.207Z,18.13
2018-04-30T02:03:49.468Z,17.87
2018-04-30T02:06:17.752Z,19.10
2018-04-30T02:08:46.017Z,20.87
2018-04-30T02:11:14.331Z,18.07
2018-04-30T02:13:42.595Z,16.20
2018-04-30T02:16:10.867Z,15.77
2018-04-30T02:18:39.222Z,16.17
2018-04-30T02:21:07.499Z,14.77
2018-04-30T02:23:35.803Z,16.33
2018-04-30T02:26:04.078Z,13.87
2018-04-30T02:28:32.381Z,11.70
2018-04-30T02:31:01.412Z,13.80
2018-04-30T02:33:29.697Z,11.80
2018-04-30T02:35:58.747Z,11.53
2018-04-30T02:38:27.020Z,11.20
2018-04-30T02:40:55.323Z,12.83
2018-04-30T02:43:24.365Z,9.67
2018-04-30T02:45:52.684Z,10.03
2018-04-30T02:48:20.950Z,9.53
2018-04-30T02:50:49.223Z,9.13
2018-04-30T02:53:17.510Z,9.87
2018-04-30T02:55:45.823Z,10.20
2018-04-30T02:58:14.092Z,9.33
2018-04-30T03:00:43.152Z,9.53
2018-04-30T03:03:11.451Z,11.13
2018-04-30T03:05:40.495Z,9.13
2018-04-30T03:08:08.799Z,10.00
2018-04-30T03:10:37.073Z,8.93
2018-04-30T03:13:05.386Z,10.40
2018-04-30T03:15:34.421Z,9.20
2018-04-30T03:18:02.708Z,8.77
2018-04-30T03:20:30.978Z,8.37
2018-04-30T03:22:59.266Z,8.63
2018-04-30T03:25:27.531Z,7.90
2018-04-30T03:27:55.830Z,9.27
2018-04-30T03:30:24.101Z,7.80
2018-04-30T03:32:52.365Z,9.43
2018-04-30T03:35:21.414Z,9.70
2018-04-30T03:37:50.442Z,7.90
2018-04-30T03:40:18.776Z,9.00
2018-04-30T03:42:47.038Z,7.60
2018-04-30T03:45:15.322Z,10.53
2018-04-30T03:47:43.640Z,8.67
2018-04-30T03:50:12.643Z,9.17
2018-04-30T03:52:41.514Z,9.30
2018-04-30T03:55:11.202Z,9.00
2018-04-30T03:57:39.484Z,8.93
2018-04-30T04:13:29.355Z,8.30
2018-04-30T04:15:57.620Z,8.40
2018-04-30T04:18:25.903Z,8.23
2018-04-30T04:20:54.174Z,8.50
2018-04-30T04:23:22.465Z,9.80
2018-04-30T04:25:50.731Z,7.80
2018-04-30T04:28:19.035Z,8.80
2018-04-30T04:30:47.308Z,9.20
2018-04-30T04:33:15.573Z,9.93
2018-04-30T04:35:43.873Z,9.90
2018-04-30T04:38:12.135Z,8.53
2018-04-30T04:40:40.445Z,9.30
2018-04-30T04:43:08.711Z,10.30
2018-04-30T04:45:36.997Z,9.60
2018-04-30T04:48:06.018Z,8.70
2018-04-30T04:50:34.327Z,9.40
2018-04-30T04:53:02.582Z,9.70
2018-04-30T04:55:30.890Z,8.40
2018-04-30T04:57:59.182Z,9.40
2018-04-30T05:00:27.448Z,9.70
2018-04-30T05:02:55.750Z,8.63
2018-04-30T05:05:24.026Z,10.60
2018-04-30T05:07:52.379Z,9.23
2018-04-30T05:10:20.633Z,9.30
2018-04-30T05:12:48.927Z,8.13
2018-04-30T05:15:17.186Z,10.03
2018-04-30T05:17:45.485Z,8.80
2018-04-30T05:20:13.779Z,9.30
2018-04-30T05:22:42.073Z,8.80
2018-04-30T05:25:10.342Z,8.87
2018-04-30T05:27:38.613Z,8.53
2018-04-30T05:30:06.916Z,8.33
2018-04-30T05:32:35.946Z,8.50
2018-04-30T05:35:04.223Z,9.27
2018-04-30T05:37:32.500Z,10.00
2018-04-30T05:40:00.807Z,9.07
2018-04-30T05:42:29.058Z,8.67
2018-04-30T05:44:57.359Z,8.40
2018-04-30T05:47:28.058Z,10.10
2018-04-30T05:49:57.102Z,7.90
2018-04-30T05:52:25.371Z,8.57
2018-04-30T05:54:53.633Z,8.37
2018-04-30T05:57:21.955Z,8.33
2018-04-30T05:59:50.241Z,7.90
2018-04-30T06:02:18.521Z,8.50
2018-04-30T06:04:47.552Z,7.97
2018-04-30T06:07:15.838Z,8.87
2018-04-30T06:09:44.139Z,9.70
2018-04-30T06:12:12.394Z,8.23
2018-04-30T06:14:40.687Z,8.57
2018-04-30T06:17:08.938Z,7.63
2018-04-30T06:19:37.247Z,9.43
2018-04-30T06:22:05.544Z,9.30
2018-04-30T06:24:33.822Z,8.77
2018-04-30T06:27:02.151Z,8.07
2018-04-30T06:29:30.401Z,7.60
2018-04-30T06:31:59.468Z,7.67
2018-04-30T06:34:27.722Z,9.13
2018-04-30T06:36:56.076Z,7.73
2018-04-30T06:39:24.329Z,7.63
2018-04-30T06:41:53.392Z,8.80
2018-04-30T06:44:21.710Z,8.47
2018-04-30T06:46:50.874Z,7.83
2018-04-30T06:49:19.159Z,8.90
2018-04-30T06:51:47.437Z,9.10
2018-04-30T06:54:15.783Z,8.00
2018-04-30T06:56:44.093Z,7.93
2018-04-30T06:59:12.360Z,7.40
2018-04-30T07:01:40.625Z,7.77
2018-04-30T07:04:08.921Z,7.10
2018-04-30T07:06:37.170Z,7.20
2018-04-30T07:09:05.566Z,7.73
2018-04-30T07:11:33.766Z,8.20
2018-04-30T07:14:02.226Z,7.97
2018-04-30T07:16:30.652Z,7.13
2018-04-30T07:18:59.702Z,7.80
2018-04-30T07:21:27.978Z,7.97
2018-04-30T07:23:56.240Z,7.97
2018-04-30T07:26:24.537Z,7.23
2018-04-30T07:28:52.790Z,7.87
2018-04-30T07:31:21.092Z,8.00
2018-04-30T07:33:51.107Z,8.80
2018-04-30T07:36:19.406Z,7.47
2018-04-30T07:38:47.671Z,7.03
2018-04-30T07:41:15.963Z,7.43
2018-04-30T07:43:44.231Z,7.10
2018-04-30T07:46:12.494Z,7.10
2018-04-30T07:48:40.796Z,9.60
2018-04-30T07:51:09.043Z,6.47
2018-04-30T07:53:37.338Z,8.20
2018-04-30T07:56:05.599Z,8.60
2018-04-30T07:58:34.337Z,6.90
2018-04-30T08:01:03.429Z,7.30
2018-04-30T08:03:32.584Z,7.07
2018-04-30T08:06:00.854Z,6.97
2018-04-30T08:08:29.155Z,7.50
2018-04-30T08:10:57.607Z,7.40
2018-04-30T08:13:25.968Z,7.17
2018-04-30T08:15:54.201Z,6.33
2018-04-30T08:18:22.478Z,8.00
2018-04-30T08:20:50.747Z,7.50
2018-04-30T08:23:19.022Z,7.43
2018-04-30T08:25:47.376Z,6.43
2018-04-30T08:28:15.670Z,7.57
2018-04-30T08:30:44.142Z,6.20
2018-04-30T08:33:12.605Z,6.27
2018-04-30T08:35:41.068Z,6.60
2018-04-30T08:38:10.284Z,5.97
2018-04-30T08:40:38.592Z,6.50
2018-04-30T08:43:06.856Z,5.83
2018-04-30T08:45:35.117Z,5.63
2018-04-30T08:48:03.415Z,5.80
2018-04-30T08:50:32.466Z,5.57
2018-04-30T08:53:01.536Z,4.33
2018-04-30T08:55:29.811Z,4.40
2018-04-30T08:57:58.128Z,4.17
2018-04-30T09:00:27.236Z,4.90
2018-04-30T09:02:55.519Z,3.70
2018-04-30T09:05:23.805Z,2.90
2018-04-30T09:07:52.120Z,2.90
2018-04-30T09:10:20.496Z,2.60
2018-04-30T09:12:48.822Z,2.53
2018-04-30T09:15:17.123Z,2.17
2018-04-30T09:17:45.407Z,2.50
2018-04-30T09:20:13.704Z,2.50
2018-04-30T09:22:41.978Z,3.33
2018-04-30T09:25:10.404Z,2.20
2018-04-30T09:27:38.691Z,1.90
2018-04-30T09:30:07.725Z,2.70
2018-04-30T09:32:36.007Z,3.20
2018-04-30T09:35:04.816Z,2.07
2018-04-30T09:37:33.040Z,1.93
2018-04-30T09:40:02.071Z,2.00
2018-04-30T09:42:30.374Z,2.03
2018-04-30T09:44:58.645Z,1.63
2018-04-30T09:47:26.954Z,1.60
2018-04-30T09:49:55.342Z,1.43
2018-04-30T09:52:24.375Z,1.60
2018-04-30T09:54:52.685Z,3.37
2018-04-30T09:57:20.942Z,2.27
2018-04-30T09:59:49.251Z,1.40
2018-04-30T10:02:17.507Z,1.30
2018-04-30T10:04:45.805Z,2.13
2018-04-30T10:07:14.119Z,1.60
2018-04-30T10:09:43.115Z,1.70
2018-04-30T10:12:11.473Z,1.60
2018-04-30T10:14:39.993Z,1.50
2018-04-30T10:17:08.635Z,1.40
2018-04-30T10:19:36.887Z,1.40
2018-04-30T10:22:05.213Z,1.77
2018-04-30T10:24:34.235Z,1.27
2018-04-30T10:27:02.593Z,2.70
2018-04-30T10:29:31.666Z,1.50
2018-04-30T10:32:00.777Z,1.47
2018-04-30T10:34:29.063Z,2.03
2018-04-30T10:36:57.318Z,2.13
2018-04-30T10:39:27.470Z,1.57
2018-04-30T10:41:55.726Z,2.10
2018-04-30T10:44:24.769Z,1.70
2018-04-30T10:46:53.039Z,1.83
2018-04-30T10:49:21.342Z,1.30
2018-04-30T10:51:49.585Z,2.33
2018-04-30T10:54:17.895Z,1.50
2018-04-30T10:56:46.187Z,1.83
2018-04-30T10:59:14.465Z,3.30
2018-04-30T11:01:42.745Z,1.60
2018-04-30T11:04:11.004Z,1.20
2018-04-30T11:06:39.312Z,1.27
2018-04-30T11:09:07.579Z,1.90
2018-04-30T11:11:35.862Z,1.30
2018-04-30T11:14:04.150Z,1.77
2018-04-30T11:16:33.207Z,1.00
2018-04-30T11:19:01.485Z,1.40
2018-04-30T11:21:29.775Z,1.37
2018-04-30T11:23:58.033Z,2.10
2018-04-30T11:26:26.280Z,1.40
2018-04-30T11:28:54.587Z,1.23
2018-04-30T11:31:22.852Z,2.60
2018-04-30T11:33:51.152Z,1.30
2018-04-30T11:36:19.410Z,1.57
2018-04-30T11:38:47.712Z,1.47
2018-04-30T11:41:16.042Z,2.17
2018-04-30T11:43:44.312Z,1.10
2018-04-30T11:46:13.339Z,1.00
2018-04-30T11:48:42.370Z,1.30
2018-04-30T11:51:11.602Z,1.50
2018-04-30T11:53:40.644Z,1.20
2018-04-30T11:56:08.944Z,1.97
2018-04-30T11:58:37.219Z,1.20
2018-04-30T12:01:05.655Z,0.90
2018-04-30T12:03:33.915Z,2.23
2018-04-30T12:06:02.983Z,1.17
2018-04-30T12:08:31.243Z,1.03
2018-04-30T12:10:59.581Z,1.80
2018-04-30T12:13:28.575Z,1.40
2018-04-30T12:15:56.841Z,1.20
2018-04-30T12:18:25.902Z,1.13
2018-04-30T12:20:54.148Z,0.90
2018-04-30T12:23:22.433Z,1.30
2018-04-30T12:25:51.475Z,1.30
2018-04-30T12:28:20.537Z,1.43
2018-04-30T12:30:48.787Z,1.70
2018-04-30T12:33:17.078Z,1.10
2018-04-30T12:35:45.343Z,2.77
2018-04-30T12:38:14.703Z,0.97
2018-04-30T12:40:43.766Z,1.10
2018-04-30T12:43:12.059Z,4.20
2018-04-30T12:45:40.330Z,3.67
2018-04-30T12:48:08.662Z,1.13
2018-04-30T12:50:36.925Z,1.93
2018-04-30T12:53:06.223Z,1.50
2018-04-30T12:55:35.300Z,1.00
2018-04-30T12:58:03.622Z,1.20
2018-04-30T13:00:31.969Z,1.30
2018-04-30T13:03:00.230Z,1.10
2018-04-30T13:05:28.523Z,0.80
2018-04-30T13:07:56.816Z,2.80
2018-04-30T13:10:25.099Z,1.30
2018-04-30T13:12:54.122Z,1.03
2018-04-30T13:15:22.479Z,1.30
2018-04-30T13:17:50.742Z,1.20
2018-04-30T13:20:19.770Z,0.97
2018-04-30T13:22:48.106Z,1.17
2018-04-30T13:25:16.380Z,0.90
2018-04-30T13:27:44.672Z,1.30
2018-04-30T13:30:13.712Z,1.47
2018-04-30T13:32:41.998Z,1.40
2018-04-30T13:35:10.313Z,1.20
2018-04-30T13:37:40.063Z,1.05
2018-04-30T13:40:08.422Z,2.50
2018-04-30T13:42:36.831Z,1.40
2018-04-30T13:45:05.171Z,1.00
2018-04-30T13:47:33.482Z,1.20
2018-04-30T13:50:01.884Z,1.00
2018-04-30T13:52:31.209Z,1.10
2018-04-30T13:54:59.756Z,0.97
2018-04-30T13:57:28.169Z,1.20
2018-04-30T13:59:58.032Z,1.40
2018-04-30T14:02:28.866Z,1.30
2018-04-30T14:04:58.028Z,1.20
2018-04-30T14:07:30.508Z,1.20
2018-04-30T14:10:03.549Z,1.10
2018-04-30T14:12:31.902Z,1.00
2018-04-30T14:15:00.275Z,0.90
2018-04-30T14:17:28.528Z,1.10
2018-04-30T14:19:56.897Z,1.00
2018-04-30T14:22:25.173Z,1.00
2018-04-30T14:24:53.494Z,1.33
2018-04-30T14:27:22.566Z,1.00
2018-04-30T14:29:50.866Z,1.63
2018-04-30T14:35:50.434Z,1.87
2018-04-30T14:38:32.461Z,1.60
2018-04-30T14:41:04.088Z,1.60
2018-04-30T14:43:46.886Z,1.10
2018-04-30T14:52:17.852Z,1.10
2018-04-30T14:54:46.157Z,1.27
2018-04-30T14:57:14.466Z,1.80
2018-04-30T14:59:42.736Z,1.07
2018-04-30T15:02:11.060Z,1.20
2018-04-30T15:04:39.324Z,1.20
2018-04-30T15:07:08.390Z,1.20
2018-04-30T15:09:37.157Z,1.10
2018-04-30T15:12:06.224Z,1.60
2018-04-30T15:14:34.650Z,1.40
2018-04-30T15:17:02.973Z,1.40
2018-04-30T15:19:31.324Z,1.10
2018-04-30T15:21:59.588Z,1.20
2018-04-30T15:24:27.852Z,1.50
2018-04-30T15:26:56.157Z,1.27
2018-04-30T15:29:24.437Z,2.10
2018-04-30T15:31:52.929Z,1.20
2018-04-30T15:34:21.199Z,1.30
2018-04-30T15:36:49.693Z,1.70
2018-04-30T15:39:17.994Z,1.20
2018-04-30T15:41:46.415Z,1.83
2018-04-30T15:44:14.706Z,1.30
2018-04-30T15:46:44.920Z,1.50
2018-04-30T15:49:13.188Z,1.30
2018-04-30T15:51:42.868Z,1.10
2018-04-30T15:54:11.126Z,1.20
2018-04-30T15:56:39.421Z,1.00
2018-04-30T15:59:08.532Z,1.27
2018-04-30T16:01:37.966Z,2.93
2018-04-30T16:04:06.270Z,1.80
2018-04-30T16:06:34.598Z,2.43
2018-04-30T16:09:03.028Z,2.73
2018-04-30T16:11:31.515Z,1.53
2018-04-30T16:14:00.453Z,1.73
2018-04-30T16:16:28.811Z,1.83
2018-04-30T16:18:57.096Z,2.00
2018-04-30T16:21:25.502Z,1.33
2018-04-30T16:23:53.793Z,1.57
2018-04-30T16:26:22.089Z,1.40
2018-04-30T16:28:50.378Z,1.80
2018-04-30T16:31:19.086Z,1.83
2018-04-30T16:33:47.352Z,2.70
2018-04-30T16:36:15.632Z,1.60
2018-04-30T16:38:43.938Z,2.00
2018-04-30T16:41:12.993Z,1.67
2018-04-30T16:43:41.272Z,2.00
2018-04-30T16:46:09.567Z,1.63
2018-04-30T16:48:37.844Z,2.30
2018-04-30T16:51:08.408Z,1.60
2018-04-30T16:53:36.745Z,1.70
2018-04-30T16:56:06.101Z,2.70
2018-04-30T16:58:34.538Z,2.63
2018-04-30T17:01:02.795Z,2.20
2018-04-30T17:03:32.140Z,2.33
2018-04-30T17:06:00.403Z,3.30
2018-04-30T17:08:28.753Z,2.00
2018-04-30T17:10:57.025Z,3.07
2018-04-30T17:13:25.305Z,2.30
2018-04-30T17:15:53.818Z,2.90
2018-04-30T17:18:22.988Z,2.67
2018-04-30T17:20:51.480Z,1.87
2018-04-30T17:23:19.844Z,2.03
2018-04-30T17:25:48.124Z,2.63
2018-04-30T17:28:16.449Z,3.83
2018-04-30T17:30:44.716Z,2.90
2018-04-30T17:33:13.002Z,8.47
2018-04-30T17:35:41.301Z,12.10
2018-04-30T17:38:09.823Z,9.57
2018-04-30T17:40:38.287Z,3.27
2018-04-30T17:43:06.771Z,2.83
2018-04-30T17:45:35.050Z,2.90
2018-04-30T17:48:04.549Z,2.70
2018-04-30T17:50:32.958Z,2.50
2018-04-30T17:53:01.992Z,3.20
2018-04-30T17:55:31.190Z,3.37
2018-04-30T17:57:59.446Z,3.47
2018-04-30T18:00:27.705Z,4.50
2018-04-30T18:02:55.993Z,4.57
2018-04-30T18:05:24.282Z,3.60
2018-04-30T18:07:52.982Z,3.50
2018-04-30T18:10:21.547Z,7.60
2018-04-30T18:12:49.885Z,9.70
2018-04-30T18:15:18.386Z,6.70
2018-04-30T18:17:46.678Z,7.87
2018-04-30T18:20:15.056Z,11.30
2018-04-30T18:22:43.343Z,10.37
2018-04-30T18:25:11.652Z,6.90
2018-04-30T18:27:41.182Z,7.40
2018-04-30T18:30:09.504Z,10.80
2018-04-30T18:32:37.807Z,16.27
2018-04-30T18:35:06.081Z,14.50
2018-04-30T18:37:34.395Z,9.60
2018-04-30T18:40:03.595Z,10.73
2018-04-30T18:42:31.923Z,9.40
2018-04-30T18:45:00.190Z,10.23
2018-04-30T18:47:28.511Z,13.97
2018-04-30T18:49:56.789Z,9.63
2018-04-30T18:52:25.172Z,11.43
2018-04-30T18:54:53.391Z,12.00
2018-04-30T18:57:21.668Z,13.70
2018-04-30T18:59:49.989Z,13.90
2018-04-30T19:05:00.650Z,18.80
2018-04-30T19:07:29.069Z,21.00
2018-04-30T19:09:58.499Z,22.27
2018-04-30T19:12:28.131Z,28.80
2018-04-30T19:14:56.568Z,30.90
2018-04-30T19:17:25.723Z,27.83
2018-04-30T19:19:54.039Z,32.30
2018-04-30T19:22:23.100Z,33.10
2018-04-30T19:24:51.460Z,33.97
2018-04-30T19:27:19.813Z,41.47
2018-04-30T19:29:50.071Z,40.17
2018-04-30T19:32:18.411Z,36.53
2018-04-30T19:34:47.484Z,35.90
2018-04-30T19:37:16.722Z,35.10
2018-04-30T19:39:45.901Z,37.50
2018-04-30T19:42:14.978Z,52.80
2018-04-30T19:44:43.303Z,50.93
2018-04-30T19:47:11.597Z,39.37
2018-04-30T19:49:39.943Z,33.10
2018-04-30T19:52:08.232Z,34.40
2018-04-30T19:54:37.298Z,34.80
2018-04-30T19:57:06.381Z,30.60
2018-04-30T19:59:34.700Z,29.20
2018-04-30T20:02:02.992Z,26.80
2018-04-30T20:04:33.159Z,18.27
2018-04-30T20:07:01.774Z,20.70
2018-04-30T20:09:33.919Z,20.67
2018-04-30T20:12:03.011Z,18.63
2018-04-30T20:14:31.437Z,18.80
2018-04-30T20:17:00.568Z,19.43
2018-04-30T20:19:29.613Z,20.00
2018-04-30T20:21:59.653Z,22.70
2018-04-30T20:24:29.003Z,19.83
2018-04-30T20:26:57.331Z,19.90
2018-04-30T20:29:25.842Z,22.53
2018-04-30T20:31:54.208Z,24.07
2018-04-30T20:34:22.838Z,26.37
2018-04-30T20:36:51.154Z,23.83
2018-04-30T20:39:20.238Z,28.50
2018-04-30T20:41:49.401Z,25.60
2018-04-30T20:44:18.686Z,25.60
2018-04-30T20:46:47.973Z,24.97
2018-04-30T20:49:16.461Z,25.30
2018-04-30T20:51:45.009Z,23.80
2018-04-30T20:54:14.157Z,25.40
2018-04-30T20:56:42.445Z,23.67
2018-04-30T20:59:10.726Z,25.53
2018-04-30T21:01:39.074Z,24.90
2018-04-30T21:04:07.336Z,26.57
2018-04-30T21:06:35.729Z,28.77
2018-04-30T21:09:12.563Z,28.97
2018-04-30T21:11:41.000Z,29.63
2018-04-30T21:14:09.270Z,30.63
2018-04-30T21:16:37.609Z,34.30
2018-04-30T21:19:06.642Z,32.53
2018-04-30T21:21:35.454Z,31.40
2018-04-30T21:24:03.825Z,31.17
2018-04-30T21:26:32.154Z,31.50
2018-04-30T21:29:01.357Z,30.80
2018-04-30T21:31:29.661Z,30.97
2018-04-30T21:33:57.978Z,31.77
2018-04-30T21:36:26.268Z,29.70
2018-04-30T21:38:54.578Z,26.67
2018-04-30T21:41:22.864Z,29.83
2018-04-30T21:43:51.182Z,28.13
2018-04-30T21:46:20.279Z,29.53
2018-04-30T21:48:48.611Z,27.30
2018-04-30T21:51:16.928Z,28.93
2018-04-30T21:53:45.240Z,26.67
2018-04-30T21:56:13.657Z,27.17
2018-04-30T21:58:41.928Z,28.37
2018-04-30T22:01:13.713Z,26.90
2018-04-30T22:03:42.078Z,34.27
2018-04-30T22:06:10.519Z,33.80
2018-04-30T22:08:38.920Z,30.80
2018-04-30T22:11:07.959Z,31.20
2018-04-30T22:13:37.064Z,31.50
2018-04-30T22:16:05.332Z,30.33
2018-04-30T22:18:33.652Z,32.13
2018-04-30T22:21:01.966Z,32.57
2018-04-30T22:23:30.312Z,31.60
2018-04-30T22:25:58.613Z,33.00
2018-04-30T22:28:26.973Z,32.60
2018-04-30T22:30:55.330Z,36.33
2018-04-30T22:33:23.639Z,30.73
2018-04-30T22:35:52.710Z,31.40
2018-04-30T22:38:21.015Z,27.27
2018-04-30T22:40:50.078Z,23.83
2018-04-30T22:43:18.445Z,24.83
2018-04-30T22:45:46.757Z,21.67
2018-04-30T22:48:15.286Z,22.67
2018-04-30T22:50:43.647Z,23.20
2018-04-30T22:53:12.895Z,21.33
2018-04-30T22:55:41.155Z,21.60
2018-04-30T22:58:09.489Z,20.60
2018-04-30T23:00:38.607Z,20.47
2018-04-30T23:03:06.981Z,20.10
2018-04-30T23:05:36.111Z,20.20
2018-04-30T23:08:04.436Z,20.00
2018-04-30T23:10:33.493Z,21.40
2018-04-30T23:13:01.855Z,22.77
2018-04-30T23:15:30.147Z,20.93
2018-04-30T23:17:58.398Z,18.70
2018-04-30T23:20:26.723Z,18.77
2018-04-30T23:22:55.084Z,21.17
2018-04-30T23:25:23.331Z,19.20
2018-04-30T23:48:37.491Z,19.40
2018-04-30T23:51:06.574Z,17.67
2018-04-30T23:53:34.875Z,17.40
2018-04-30T23:56:03.916Z,19.10
2018-04-30T23:58:32.215Z,17.77
